UAF1225 EGSS-OMAA
Flight info
| Callsign | UAF1225 |
|---|---|
| Flight time | N/A |
| Altitude | 33000 |
| Route | DET Q70 ITVIP L10 DVR UL9 KONAN UL607 KOK M150 PITES DCT NOMBO Y161 RIDAR Z98 WLD T702 BADIT DCT GOTAR DCT TONDO/N0424F350 DCT PADGU DCT BULEN L742 RIXEN UA17 BAG UW75 BAKIR UL601 TUNLA L601 KTN/N0430F370 R785 RASLI P559 GADLI T503 KSA M321 AMBAG DCT 21N051E DCT DANOK M318 ATUDO |
| Aircraft | C17/H-SDE1E3FGHIJ5KM1RTUWXYZ/HD1 |
Departure
| Time | 2026-05-04 11:58 |
|---|---|
| Airport | London Stansted Airport (EGSS) |
Arrival
| Time | N/A |
|---|---|
| Airport | Zayed International Airport (OMAA) |
| Time | Latitude | Longitude | Altitude | Speed | Heading |
|---|---|---|---|---|---|
| 2026-05-04 11:43 | 51.88527 | 0.22778 | 332 ft | 0 kts | 180° |
| 2026-05-04 11:52 | 51.88526 | 0.22778 | 332 ft | 1 kts | 180° |
| 2026-05-04 11:52 | 51.88501 | 0.22787 | 327 ft | 6 kts | 158° |
| 2026-05-04 11:53 | 51.88461 | 0.22812 | 328 ft | 6 kts | 152° |
| 2026-05-04 11:53 | 51.88434 | 0.22848 | 327 ft | 5 kts | 142° |
| 2026-05-04 11:53 | 51.88398 | 0.22869 | 331 ft | 7 kts | 177° |
| 2026-05-04 11:53 | 51.88340 | 0.22837 | 325 ft | 11 kts | 210° |
| 2026-05-04 11:55 | 51.87997 | 0.22333 | 328 ft | 12 kts | 223° |
| 2026-05-04 11:55 | 51.87936 | 0.22244 | 330 ft | 11 kts | 221° |
| 2026-05-04 11:56 | 51.87875 | 0.22150 | 326 ft | 14 kts | 223° |
| 2026-05-04 11:56 | 51.87802 | 0.22042 | 324 ft | 14 kts | 223° |
| 2026-05-04 11:56 | 51.87740 | 0.21949 | 324 ft | 9 kts | 223° |
| 2026-05-04 11:56 | 51.87687 | 0.21904 | 325 ft | 9 kts | 179° |
| 2026-05-04 11:57 | 51.87626 | 0.21930 | 323 ft | 10 kts | 163° |
| 2026-05-04 11:57 | 51.87553 | 0.21969 | 323 ft | 12 kts | 148° |
| 2026-05-04 11:57 | 51.87566 | 0.22079 | 322 ft | 16 kts | 42° |
| 2026-05-04 11:57 | 51.87792 | 0.22416 | 326 ft | 79 kts | 43° |
| 2026-05-04 11:58 | 51.88366 | 0.23276 | 331 ft | 142 kts | 42° |
| 2026-05-04 11:58 | 51.89155 | 0.24450 | 793 ft | 165 kts | 41° |
| 2026-05-04 11:58 | 51.90082 | 0.25846 | 1244 ft | 201 kts | 44° |
| 2026-05-04 11:58 | 51.91072 | 0.27411 | 1883 ft | 195 kts | 45° |
| 2026-05-04 11:59 | 51.92030 | 0.29014 | 2588 ft | 206 kts | 49° |
| 2026-05-04 11:59 | 51.92982 | 0.30920 | 3199 ft | 231 kts | 55° |
| 2026-05-04 11:59 | 51.93508 | 0.33543 | 3654 ft | 265 kts | 94° |
| 2026-05-04 11:59 | 51.92882 | 0.36204 | 4347 ft | 253 kts | 136° |
| 2026-05-04 12:00 | 51.91436 | 0.37860 | 5359 ft | 257 kts | 151° |
| 2026-05-04 12:00 | 51.89890 | 0.39377 | 6285 ft | 267 kts | 145° |
| 2026-05-04 12:00 | 51.88670 | 0.41671 | 7124 ft | 273 kts | 118° |
| 2026-05-04 12:00 | 51.87893 | 0.44515 | 8035 ft | 281 kts | 114° |
| 2026-05-04 12:01 | 51.87145 | 0.47443 | 8954 ft | 288 kts | 116° |
| 2026-05-04 12:01 | 51.86303 | 0.50386 | 9875 ft | 291 kts | 118° |